aviador You're here:

VHHH Decoded Metar

HONG KONG in HONG KONG
Report Time2018-02-25 11:00:00
UTC Time2018-02-25 11:10:58
Flight Rules vfr VFR
Wind330° at 06 kt
W.Decomp.*RWY 25: 0.8 kt HW 5.9 kt RCW
W.Rank330° ranks 18
Current wind is below 330° avg. (8.8)
Visibility8000 m
Phenomena:N/A
Clouds:Few 016 Hf
Expected CloudBase > 1,200 ft AGL from Temp-Dew spread
CeilingNone
Temp20°C (ISA +5)
Dew Point17°C (83% RH)
QNH1018 hPa
Density Alt712 ft
Elevation30 ft
Report Wrong Elevation
Raw Report
METAR VHHH 251100Z 33006KT 8000 FEW016 20/17 Q1018 NOSIG=

Extra information for VHHH:More info

Metar Taf Metar & Taf Last 4 Metars F.Rules Stats Wind Profile Meteogram Temp Stats Airport Information Weather charts Add Link Nearby VenuesMetar ALERT Operation Metar Decoded Social comments